Stations météo

réclame
Mon MeteoGroup
Nimes/Courbessac, France (7645): Température de l'air & dewpoint: 18.10.2017 00:00:00 - 24.10.2017 00:00:00 (CEST)Nimes/Courbessac, France (7645): Température de l'air 5cm: 18.10.2017 00:00:00 - 24.10.2017 00:00:00 (CEST)Nimes/Courbessac, France (7645): Température de l'air -20cm: 18.10.2017 00:00:00 - 24.10.2017 00:00:00 (CEST)Nimes/Courbessac, France (7645): Vitesse du vent & gusts: 18.10.2017 00:00:00 - 24.10.2017 00:00:00 (CEST)Nimes/Courbessac, France (7645): Direction du vent: 18.10.2017 00:00:00 - 24.10.2017 00:00:00 (CEST)Nimes/Courbessac, France (7645): reduced air pressure: 18.10.2017 00:00:00 - 24.10.2017 00:00:00 (CEST)Nimes/Courbessac, France (7645): Ensoleillement: 18.10.2017 00:00:00 - 24.10.2017 00:00:00 (CEST)Nimes/Courbessac, France (7645): Quantités de précipitations: 18.10.2017 00:00:00 - 24.10.2017 00:00:00 (CEST)
Date & Time tt [°C] td [°C] tt 5cm [°C] tt -20cm [°C] ff [km/h] ff [knt] fx [km/h] fx [knt] dd ppp [hPa] sd [min] rr [mm]
24.10.2017 00:00:00 14,5 5,8 13,2 18,5 16 9 39 21 NNW 1023,4 0 0,0
23.10.2017 23:00:00 14,3 5,6 13,5 18,5 17 9 38 20 N 1023,4 0 0,0
23.10.2017 22:00:00 14,5 5,3 13,6 18,6 16 8 37 20 N 1023,2 0 0,0
23.10.2017 21:00:00 14,8 5,0 13,2 18,6 15 8 33 18 NNW 1023,1 0 0,0
23.10.2017 20:00:00 15,5 4,5 14,6 18,5 16 9 38 20 NNW 1023,3 0 0,0
23.10.2017 19:00:00 16,4 4,1 15,7 18,4 20 11 44 24 N 1023,0 22 0,0
23.10.2017 18:00:00 18,1 3,5 17,5 18,3 23 13 52 28 N 1022,5 60 0,0
23.10.2017 17:00:00 19,0 2,8 21,4 18,2 23 13 59 32 N 1022,4 60 0,0
23.10.2017 16:00:00 19,5 2,4 22,7 18,0 29 16 68 37 N 1022,0 60 0,0
23.10.2017 15:00:00 19,4 2,3 23,2 17,9 27 14 53 28 N 1022,0 60 0,0
23.10.2017 14:00:00 19,0 2,3 23,3 17,8 30 16 56 30 NNW 1022,5 58 0,0
23.10.2017 13:00:00 18,5 3,1 20,7 17,8 24 13 58 31 N 1023,4 55 0,0
23.10.2017 12:00:00 17,7 3,6 18,9 17,8 26 14 44 24 N 1023,4 54 0,0
23.10.2017 11:00:00 17,0 3,3 18,8 17,9 19 11 36 20 N 1023,9 60 0,0
23.10.2017 10:00:00 14,0 4,0 10,7 18,1 9 5 18 10 WNW 1024,2 60 0,0
23.10.2017 09:00:00 10,4 3,7 2,9 18,2 8 4 16 9 NW 1024,2 31 0,0
23.10.2017 08:00:00 6,7 2,6 2,7 18,4 3 2 9 5 NNW 1024,4 0 0,0
23.10.2017 07:00:00 7,1 2,6 3,6 18,6 4 2 10 5 NNW 1024,5 0 0,0
23.10.2017 06:00:00 9,1 2,9 4,1 18,7 9 5 17 9 NW 1024,3 0 0,0
23.10.2017 05:00:00 7,6 2,7 3,7 18,9 5 3 10 5 N 1024,5 0 0,0
23.10.2017 04:00:00 8,2 2,6 4,6 19,0 5 3 12 6 NNW 1024,5 0 0,0
23.10.2017 03:00:00 6,9 1,8 4,6 19,2 4 2 10 6 ENE 1024,7 0 0,0
23.10.2017 02:00:00 10,3 2,1 7,5 19,3 3 2 18 10 NE 1024,4 0 0,0
23.10.2017 01:00:00 12,1 2,8 10,3 19,4 10 5 16 9 NW 1023,9 0 0,0
23.10.2017 00:00:00 13,1 2,9 11,7 19,5 11 6 24 13 NNW 1023,9 0 0,0
22.10.2017 23:00:00 13,7 3,2 12,4 19,6 13 7 32 18 NNW 1023,6 0 0,0
22.10.2017 22:00:00 14,5 3,0 12,2 19,7 17 9 31 17 N 1023,4 0 0,0
22.10.2017 21:00:00 14,2 3,9 13,1 19,7 8 5 23 12 WNW 1023,1 0 0,0
22.10.2017 20:00:00 14,8 4,2 13,9 19,8 11 6 23 13 WNW 1022,8 0 0,0
22.10.2017 19:00:00 16,1 3,5 14,9 19,7 12 6 35 19 WNW 1021,6 25 0,0
22.10.2017 18:00:00 17,8 3,6 17,3 19,7 19 11 45 24 WNW 1021,0 60 0,0
22.10.2017 17:00:00 18,3 3,7 17,8 19,6 22 12 46 25 WNW 1020,8 33 0,0
22.10.2017 16:00:00 18,3 3,7 19,7 19,5 24 13 51 28 WNW 1021,1 56 0,0
22.10.2017 15:00:00 19,1 4,1 22,7 19,4 21 12 51 28 WNW 1021,1 58 0,0
22.10.2017 14:00:00 19,0 3,2 19,0 19,4 18 10 35 19 NW 1021,7 16 0,0
22.10.2017 13:00:00 17,9 4,1 19,2 19,3 16 9 32 17 NW 1022,8 40 0,0
22.10.2017 12:00:00 17,1 4,4 19,4 19,4 17 9 35 19 NW 1023,2 42 0,0
22.10.2017 11:00:00 16,9 5,2 18,7 19,5 21 11 44 24 WNW 1023,4 60 0,0
22.10.2017 10:00:00 16,1 5,7 14,1 19,7 16 9 37 20 WNW 1023,5 60 0,0
22.10.2017 09:00:00 13,5 5,6 11,0 19,8 18 10 37 20 WNW 1023,0 33 0,0
22.10.2017 08:00:00 11,8 5,6 10,5 19,9 10 6 21 11 WNW 1022,9 0 0,0
22.10.2017 07:00:00 12,3 5,5 11,3 20,1 10 5 18 10 NW 1022,9 0 0,0
22.10.2017 06:00:00 13,2 5,4 12,2 20,2 13 7 27 15 WNW 1022,9 0 0,0
22.10.2017 05:00:00 14,1 5,7 12,6 20,3 17 9 29 16 NW 1023,0 0 0,0
22.10.2017 04:00:00 14,6 6,2 13,5 20,4 9 5 23 12 WNW 1023,1 0 0,0
22.10.2017 03:00:00 15,4 6,7 14,9 20,5 8 4 19 10 WNW 1023,3 0 0,0
22.10.2017 02:00:00 16,2 6,6 15,8 20,6 12 7 26 14 NW 1023,4 0 0,0
22.10.2017 01:00:00 16,5 6,0 15,9 20,6 10 5 39 21 NW 1023,3 0 0,0
22.10.2017 00:00:00 16,9 7,3 16,2 20,7 9 5 36 20 W 1022,8 0 0,0
21.10.2017 23:00:00 17,8 7,5 17,2 20,8 18 10 45 25 NW 1021,9 0 0,0
21.10.2017 22:00:00 17,5 8,9 17,2 20,8 15 8 46 25 NW 1021,1 0 0,0
21.10.2017 21:00:00 17,8 8,9 17,1 20,8 21 11 41 22 NW 1020,5 0 0,0
21.10.2017 20:00:00 18,4 9,2 17,9 20,7 19 10 37 20 NW 1020,3 0 0,0
21.10.2017 19:00:00 20,0 15,8 19,7 20,6 11 6 26 14 WSW 1019,5 3 0,0
21.10.2017 18:00:00 21,6 15,0 22,0 20,5 14 7 24 13 SSW 1019,0 12 0,0
21.10.2017 17:00:00 23,1 15,7 25,4 20,3 13 7 22 12 SSW 1018,7 23 0,0
21.10.2017 16:00:00 24,1 15,6 26,6 20,2 11 6 24 13 S 1018,6 36 0,0
21.10.2017 15:00:00 23,3 14,8 26,5 20,0 8 5 18 10 SSW 1019,1 9 0,0
21.10.2017 14:00:00 23,9 15,7 26,2 19,9 9 5 15 8 S 1020,0 28 0,0
21.10.2017 13:00:00 23,2 15,5 26,8 19,9 7 4 16 9 S 1020,7 40 0,0
21.10.2017 12:00:00 22,3 16,3 21,7 19,9 3 2 9 5 SW 1021,0 30 0,0
21.10.2017 11:00:00 19,1 15,6 19,5 19,9 3 2 8 4 SE 1021,4 0 0,0
21.10.2017 10:00:00 18,1 15,2 16,5 19,9 5 3 8 4 SSW 1021,4 9 0,0
21.10.2017 09:00:00 16,2 14,9 14,1 20,0 3 2 6 3 N 1020,9 19 0,0
21.10.2017 08:00:00 15,5 14,5 12,5 20,0 3 2 5 3 N 1020,4 0 0,0
21.10.2017 07:00:00 16,6 15,1 14,7 20,1 2 1 6 3 NNE 1020,1 0 0,0
21.10.2017 06:00:00 17,2 15,9 16,7 20,1 2 1 9 5 NE 1019,8 0 0,0
21.10.2017 05:00:00 17,3 16,0 16,9 20,2 8 4 11 6 E 1019,5 0 0,0
21.10.2017 04:00:00 17,7 16,2 17,3 20,2 3 2 9 5 ENE 1020,0 0 0,0
21.10.2017 03:00:00 17,7 16,0 17,4 20,2 2 1 7 4 ENE 1020,3 0 0,0
21.10.2017 02:00:00 17,6 15,8 17,4 20,3 5 3 7 4 ENE 1020,4 0 0,0
21.10.2017 01:00:00 17,5 15,8 17,1 20,3 4 2 5 3 ENE 1020,6 0 0,0
21.10.2017 00:00:00 17,2 15,4 16,0 20,4 0 0 2 1 N 1020,7 0 0,0
20.10.2017 23:00:00 16,9 15,4 15,6 20,4 0 0 4 2 N 1020,6 0 0,0
20.10.2017 22:00:00 17,4 15,2 16,1 20,4 2 1 6 3 SE 1020,3 0 0,0
20.10.2017 21:00:00 18,5 15,9 16,9 20,4 5 3 10 6 SSW 1019,9 0 0,0
20.10.2017 20:00:00 18,8 15,8 17,4 20,4 4 2 9 5 SSW 1019,7 0 0,0
20.10.2017 19:00:00 19,6 15,7 18,7 20,3 6 3 16 9 SSW 1019,2 0 0,0
20.10.2017 18:00:00 20,8 15,6 20,5 20,3 10 5 22 12 SSW 1018,9 0 0,0
20.10.2017 17:00:00 22,4 15,3 24,3 20,1 13 7 23 12 SSW 1018,8 24 0,0
20.10.2017 16:00:00 22,6 15,2 24,0 20,0 10 5 20 11 SSW 1018,5 4 0,0
20.10.2017 15:00:00 23,3 14,8 23,2 20,0 6 4 16 9 W 1018,6 6 0,0
20.10.2017 14:00:00 21,9 14,0 23,4 19,9 4 2 11 6 W 1019,0 0 0,0
20.10.2017 13:00:00 22,1 13,7 23,8 19,8 6 4 13 7 SSW 1019,2 1 0,0
20.10.2017 12:00:00 21,5 12,6 22,9 19,8 4 2 11 6 WSW 1019,2 39 0,0
20.10.2017 11:00:00 20,1 12,3 20,8 19,8 4 2 9 5 ESE 1018,7 0 0,0
20.10.2017 10:00:00 19,7 12,9 15,0 19,9 2 1 9 5 NE 1018,3 41 0,0
20.10.2017 09:00:00 15,2 13,2 14,2 20,0 4 2 11 6 N 1018,0 1 0,0
20.10.2017 08:00:00 15,1 13,1 14,1 20,0 8 4 15 8 NNW 1017,2 0 0,0
20.10.2017 07:00:00 15,5 13,5 14,7 20,1 8 5 14 8 N 1016,6 0 0,0
20.10.2017 06:00:00 15,4 13,8 14,4 20,2 8 4 12 7 NNW 1016,2 0 1,0
20.10.2017 05:00:00 17,2 11,9 15,1 20,2 3 2 11 6 WNW 1016,3 0 0,0
20.10.2017 04:00:00 16,6 11,3 15,7 20,3 8 4 13 7 N 1016,1 0 0,0
20.10.2017 03:00:00 15,9 11,5 14,4 20,5 8 5 14 8 N 1015,9 0 0,0
20.10.2017 02:00:00 15,1 11,3 12,8 20,6 9 5 13 7 NNW 1015,2 0 0,0
20.10.2017 01:00:00 15,1 10,9 12,3 20,6 6 3 12 7 N 1014,8 0 0,0
20.10.2017 00:00:00 16,3 11,0 12,3 20,6 9 5 13 7 N 1014,5 0 0,0
19.10.2017 23:00:00 17,2 11,0 15,1 20,7 6 3 9 5 E 1014,2 0 0,0
19.10.2017 22:00:00 18,6 10,9 17,6 20,7 8 4 13 7 SE 1014,4 0 0,0
19.10.2017 21:00:00 19,5 11,0 17,5 20,7 5 3 20 11 ESE 1013,9 0 0,0
19.10.2017 20:00:00 19,6 12,6 18,2 20,6 4 2 9 5 SE 1013,4 0 0,0
19.10.2017 19:00:00 20,7 13,2 19,9 20,6 3 2 17 9 SW 1012,5 0 0,0
19.10.2017 18:00:00 21,3 13,2 21,5 20,4 15 8 29 16 SSE 1011,8 1 0,0
19.10.2017 17:00:00 22,0 13,1 22,1 20,4 21 12 42 23 SSE 1011,8 1 0,0
19.10.2017 16:00:00 22,0 13,6 22,7 20,2 23 12 35 19 SSE 1012,4 0 0,0
19.10.2017 15:00:00 23,0 13,2 23,8 20,1 19 10 29 15 S 1012,4 6 0,0
19.10.2017 14:00:00 22,1 12,6 23,6 20,1 14 8 34 19 SSE 1013,0 9 0,0
19.10.2017 13:00:00 21,8 12,4 21,7 20,0 20 11 34 18 SE 1013,7 0 0,0
19.10.2017 12:00:00 21,4 12,3 22,3 20,0 21 11 34 18 ESE 1014,3 8 0,0
19.10.2017 11:00:00 21,6 12,7 19,8 20,1 13 7 20 11 E 1013,9 15 0,0
19.10.2017 10:00:00 18,3 12,1 18,3 20,2 9 5 16 8 ENE 1014,2 3 0,0
19.10.2017 09:00:00 17,9 11,0 14,6 20,3 7 4 11 6 ENE 1014,0 19 0,0
19.10.2017 08:00:00 15,7 10,7 12,6 20,3 6 3 10 6 ENE 1014,0 0 0,0
19.10.2017 07:00:00 16,2 10,5 14,2 20,4 3 2 16 9 NE 1014,2 0 0,0
19.10.2017 06:00:00 17,1 10,7 16,1 20,5 8 4 13 7 ENE 1014,0 0 0,0
19.10.2017 05:00:00 16,9 11,2 15,8 20,5 6 4 19 10 ENE 1014,1 0 0,0
19.10.2017 04:00:00 17,3 12,0 16,5 20,6 10 5 14 8 NE 1013,6 0 0,0
19.10.2017 03:00:00 17,0 12,1 16,6 20,6 11 6 16 8 E 1014,4 0 0,0
19.10.2017 02:00:00 17,2 11,9 16,8 20,6 9 5 19 11 E 1014,7 0 0,0
19.10.2017 01:00:00 18,1 12,3 18,0 20,6 14 7 24 13 ESE 1015,1 0 0,0
19.10.2017 00:00:00 18,4 13,5 18,1 20,6 15 8 29 16 ESE 1015,3 0 0,0
18.10.2017 23:00:00 18,6 14,3 18,4 20,7 16 9 26 14 ESE 1015,3 0 0,0
18.10.2017 22:00:00 19,0 14,5 18,8 20,7 13 7 27 14 SE 1015,3 0 0,0
18.10.2017 21:00:00 19,4 14,9 19,3 20,6 16 8 26 14 SSE 1015,3 0 0,0
18.10.2017 20:00:00 19,5 14,9 19,4 20,6 14 8 34 18 SE 1015,2 0 0,0
18.10.2017 19:00:00 19,9 15,1 19,8 20,5 19 11 43 23 SE 1014,3 0 0,0
18.10.2017 18:00:00 20,2 15,2 19,8 20,4 22 12 51 28 SSE 1014,3 0 0,0
18.10.2017 17:00:00 20,1 15,3 18,9 20,3 29 15 44 24 SSE 1014,6 0 0,0
18.10.2017 16:00:00 21,3 14,7 21,8 20,2 28 15 44 24 SE 1014,7 7 0,0
18.10.2017 15:00:00 21,9 14,5 21,4 20,1 26 14 41 22 SE 1015,3 1 0,0
18.10.2017 14:00:00 21,6 13,8 23,0 19,9 26 14 45 25 SE 1016,4 8 0,0
18.10.2017 13:00:00 21,3 13,5 22,3 19,9 31 17 47 25 SSE 1017,2 33 0,0
18.10.2017 12:00:00 21,1 13,3 21,6 19,9 25 13 40 21 SE 1017,6 39 0,0
18.10.2017 11:00:00 20,0 12,7 18,5 19,9 17 9 29 16 SSE 1018,2 42 0,0
18.10.2017 10:00:00 16,7 11,2 15,5 20,0 10 5 21 11 ESE 1018,4 7 0,0
18.10.2017 09:00:00 15,3 9,6 14,5 20,0 9 5 14 8 E 1018,5 0 0,0
18.10.2017 08:00:00 15,1 10,3 14,7 20,1 6 3 10 6 ENE 1018,4 0 0,0
18.10.2017 07:00:00 14,8 11,0 14,4 20,2 6 3 12 7 ENE 1018,7 0 0,0
18.10.2017 06:00:00 14,6 11,9 14,6 20,2 6 4 14 8 E 1019,1 0 0,0
18.10.2017 05:00:00 14,9 13,1 13,9 20,3 6 3 18 10 ENE 1019,6 0 0,0
18.10.2017 04:00:00 14,6 13,3 13,6 20,3 7 4 13 7 ENE 1020,1 0 0,0
18.10.2017 03:00:00 15,2 13,4 14,5 20,4 10 5 19 11 ENE 1020,5 0 0,0
18.10.2017 02:00:00 16,5 14,5 16,4 20,4 11 6 21 12 E 1021,0 0 0,0
18.10.2017 01:00:00 16,6 14,6 16,6 20,4 9 5 13 7 ENE 1021,4 0 0,0
18.10.2017 00:00:00 16,7 14,9 16,4 20,5 9 5 14 7 ENE 1021,8 0 0,0

tt = Température de l'air
td = dewpoint
tt 5cm = Température de l'air 5cm
tt -20cm = Température de l'air -20cm
ff = Vitesse du vent
fx = gusts
dd = Direction du vent
ppp = reduced air pressure
sd = Ensoleillement
rr = Quantités de précipitations

stations d'obs. à proximité